createdAt,value
2022-08-26T00:01:04.709Z,68.31
2022-08-26T00:04:23.825Z,68.38
2022-08-26T00:07:15.203Z,68.51
2022-08-26T00:11:02.081Z,68.56
2022-08-26T00:14:17.230Z,68.66
2022-08-26T00:17:04.335Z,68.66
2022-08-26T00:19:56.808Z,68.74
2022-08-26T00:22:48.520Z,68.93
2022-08-26T00:25:21.703Z,68.74
2022-08-26T00:28:00.748Z,68.89
2022-08-26T00:30:58.123Z,68.81
2022-08-26T00:33:32.571Z,68.96
2022-08-26T00:37:01.635Z,69.01
2022-08-26T00:40:12.902Z,68.95
2022-08-26T00:42:48.164Z,69.13
2022-08-26T00:45:19.636Z,69.13
2022-08-26T00:48:03.750Z,69.27
2022-08-26T00:50:39.162Z,69.22
2022-08-26T00:53:26.037Z,69.21
2022-08-26T00:56:30.836Z,69.26
2022-08-26T00:59:05.366Z,69.40
2022-08-26T01:01:41.160Z,69.48
2022-08-26T01:04:12.513Z,69.38
2022-08-26T01:06:44.421Z,69.36
2022-08-26T01:09:18.300Z,69.25
2022-08-26T01:11:55.962Z,69.28
2022-08-26T01:14:30.537Z,69.37
2022-08-26T01:17:05.591Z,69.22
2022-08-26T01:19:49.531Z,69.53
2022-08-26T01:22:52.371Z,69.55
2022-08-26T01:25:23.835Z,69.69
2022-08-26T01:28:00.358Z,69.61
2022-08-26T01:30:32.145Z,69.55
2022-08-26T01:33:13.448Z,69.47
2022-08-26T01:35:45.463Z,69.57
2022-08-26T01:38:19.292Z,69.53
2022-08-26T01:40:52.543Z,69.75
2022-08-26T01:43:29.361Z,69.64
2022-08-26T01:46:01.427Z,69.65
2022-08-26T01:48:40.023Z,69.62
2022-08-26T01:51:11.815Z,69.71
2022-08-26T01:53:46.110Z,69.63
2022-08-26T01:56:21.209Z,69.39
2022-08-26T01:58:58.391Z,69.49
2022-08-26T02:01:32.435Z,69.55
2022-08-26T02:04:56.770Z,69.65
2022-08-26T02:08:12.584Z,69.75
2022-08-26T02:11:20.646Z,69.74
2022-08-26T02:14:33.823Z,69.65
2022-08-26T02:17:11.636Z,69.80
2022-08-26T02:20:18.146Z,69.74
2022-08-26T02:23:29.827Z,69.98
2022-08-26T02:26:06.256Z,70.05
2022-08-26T02:28:55.638Z,70.17
2022-08-26T02:31:47.021Z,70.32
2022-08-26T02:34:22.476Z,70.44
2022-08-26T02:36:53.023Z,70.54
2022-08-26T02:39:30.921Z,70.48
2022-08-26T02:42:22.209Z,70.46
2022-08-26T02:44:56.285Z,70.63
2022-08-26T02:47:35.094Z,70.51
2022-08-26T02:50:09.839Z,70.70
2022-08-26T02:52:54.022Z,70.55
2022-08-26T02:55:53.357Z,70.60
2022-08-26T02:58:43.980Z,70.48
2022-08-26T03:01:35.876Z,70.39
2022-08-26T03:04:33.468Z,70.45
2022-08-26T03:07:28.805Z,70.43
2022-08-26T03:10:46.699Z,70.40
2022-08-26T03:13:32.385Z,70.52
2022-08-26T03:16:32.344Z,70.39
2022-08-26T03:19:32.639Z,70.54
2022-08-26T03:22:31.170Z,70.66
2022-08-26T03:25:33.303Z,70.79
2022-08-26T03:28:28.691Z,70.74
2022-08-26T03:31:30.544Z,70.71
2022-08-26T03:34:24.204Z,70.70
2022-08-26T03:36:58.374Z,70.75
2022-08-26T03:39:31.633Z,70.86
2022-08-26T03:42:05.838Z,70.73
2022-08-26T03:44:42.735Z,70.72
2022-08-26T03:47:17.656Z,70.76
2022-08-26T03:49:49.116Z,70.76
2022-08-26T03:52:23.098Z,70.73
2022-08-26T03:54:56.260Z,70.75
2022-08-26T03:57:31.761Z,70.66
2022-08-26T04:00:07.111Z,70.58
2022-08-26T04:02:40.988Z,70.55
2022-08-26T04:05:12.677Z,70.39
2022-08-26T04:07:48.544Z,70.30
2022-08-26T04:10:28.568Z,70.29
2022-08-26T04:13:01.301Z,70.38
2022-08-26T04:15:33.453Z,70.48
2022-08-26T04:18:04.925Z,70.51
2022-08-26T04:20:35.185Z,70.57
2022-08-26T04:23:06.331Z,70.56
2022-08-26T04:25:40.528Z,70.64
2022-08-26T04:28:14.490Z,70.68
2022-08-26T04:31:05.719Z,70.52
2022-08-26T04:33:57.820Z,70.55
2022-08-26T04:36:37.449Z,70.54
2022-08-26T04:40:25.935Z,70.46
2022-08-26T04:43:21.726Z,70.57
2022-08-26T04:46:07.396Z,70.50
2022-08-26T04:48:38.341Z,70.50
2022-08-26T04:51:11.843Z,70.46
2022-08-26T04:54:11.876Z,70.45
2022-08-26T04:57:24.868Z,70.39
2022-08-26T05:00:18.364Z,70.27
2022-08-26T05:02:50.036Z,70.25
2022-08-26T05:05:24.896Z,70.33
2022-08-26T05:08:17.200Z,70.24
2022-08-26T05:11:05.729Z,70.18
2022-08-26T05:14:17.316Z,70.05
2022-08-26T05:16:54.326Z,69.97
2022-08-26T05:19:27.953Z,70.02
2022-08-26T05:22:09.517Z,69.84
2022-08-26T05:24:43.874Z,69.77
2022-08-26T05:27:22.341Z,69.70
2022-08-26T05:29:58.658Z,69.66
2022-08-26T05:32:47.833Z,69.54
2022-08-26T05:35:24.045Z,69.56
2022-08-26T05:38:54.448Z,69.53
2022-08-26T05:41:34.614Z,69.32
2022-08-26T05:44:14.419Z,69.14
2022-08-26T05:47:45.362Z,68.98
2022-08-26T05:51:48.104Z,68.83
2022-08-26T05:55:36.354Z,68.71
2022-08-26T05:58:10.417Z,68.58
2022-08-26T06:00:44.498Z,68.59
2022-08-26T06:03:17.541Z,68.55
2022-08-26T06:06:08.368Z,68.47
2022-08-26T06:08:44.377Z,68.40
2022-08-26T06:11:58.992Z,68.25
2022-08-26T06:14:32.919Z,68.24
2022-08-26T06:17:12.082Z,68.13
2022-08-26T06:19:51.374Z,67.82
2022-08-26T06:22:56.255Z,67.82
2022-08-26T06:25:59.185Z,67.79
2022-08-26T06:29:24.305Z,67.93
2022-08-26T06:31:59.043Z,67.49
2022-08-26T06:35:25.876Z,67.47
2022-08-26T06:39:01.722Z,67.11
2022-08-26T06:42:35.110Z,67.16
2022-08-26T06:49:13.479Z,66.48
2022-08-26T06:52:11.171Z,66.29
2022-08-26T06:55:01.229Z,66.17
2022-08-26T11:20:30.328Z,33.34
2022-08-26T19:00:22.373Z,44.65
2022-08-26T19:03:28.673Z,44.67
2022-08-26T19:07:31.603Z,44.77
2022-08-26T19:17:42.246Z,44.94
2022-08-26T22:21:21.808Z,49.82
2022-08-26T22:23:58.087Z,50.04
2022-08-26T22:26:32.903Z,50.07
2022-08-26T22:29:03.777Z,50.04
